This is the latest recevied weather packets stored in our database for station/object G6LTT. If no packets are shown the sender has not sent any weather packets the latest 10 day(s).
| Time | Temp. | Humidity | Pressure | Rain* | Wind** | Luminosity | Snow |
|---|---|---|---|---|---|---|---|
| 1777856537 | 12.78° C | 87% | 1039.9 hPa | 0 mm | - | - | - |
| 1777856044 | 12.78° C | 86% | 1039.8 hPa | 0 mm | - | - | - |
| 1777852803 | 13.33° C | 81% | 1039.8 hPa | 0 mm | - | - | - |
| 1777852443 | 13.33° C | 81% | 1039.5 hPa | 0 mm | - | - | - |
| 1777851363 | 14.44° C | 77% | 1039.5 hPa | 0 mm | - | - | - |
| 1777846144 | 15° C | 70% | 1039 hPa | 0 mm | - | - | - |
| 1777845375 | 15.56° C | 69% | 1039.1 hPa | 0 mm | - | - | - |
| 1777843623 | 15° C | 72% | 1039.1 hPa | 0 mm | - | - | - |
| 1777841643 | 15° C | 70% | 1039 hPa | 0 mm | - | - | - |
| 1777837096 | 16.11° C | 64% | 1037.9 hPa | 0 mm | - | - | - |
| 1777836016 | 15.56° C | 65% | 1037.7 hPa | 0 mm | - | - | - |
| 1777828143 | 17.78° C | 57% | 1037.2 hPa | 0 mm | - | - | - |
| 1777825083 | 18.33° C | 55% | 1037.2 hPa | 0 mm | - | - | - |
| 1777824675 | 18.33° C | 56% | 1037 hPa | 0 mm | - | - | - |
| 1777822023 | 17.78° C | 57% | 1037.3 hPa | 0 mm | - | - | - |
| 1777820943 | 17.78° C | 58% | 1037.4 hPa | 0 mm | - | - | - |
| 1777820533 | 17.78° C | 58% | 1037.4 hPa | 0 mm | - | - | - |
| 1777810143 | 16.67° C | 63% | 1038 hPa | 0 mm | - | - | - |
| 1777809243 | 17.22° C | 60% | 1037.7 hPa | 0 mm | - | - | - |
| 1777808163 | 17.78° C | 62% | 1037.9 hPa | 0 mm | - | - | - |
| 1777807623 | 16.67° C | 63% | 1037.8 hPa | 0 mm | - | - | - |
| 1777802404 | 15° C | 70% | 1038 hPa | 0 mm | - | - | - |
| 1777798803 | 13.89° C | 75% | 1038.2 hPa | 0 mm | - | - | - |
| 1777798573 | 14.44° C | 74% | 1037.9 hPa | 0 mm | - | - | - |
| 1777798035 | 13.89° C | 75% | 1038.2 hPa | 0 mm | - | - | - |
* Rain latest hour (hover to see other rain measurements)
** Current wind speed in m/s (hover to see current wind gust speed)